Time;durP1;ratioP1;P1;durP2;ratioP2;P2;SDS_P1;SDS_P2;PMS_P1;PMS_P2;Temp;Humidity;BMP_temperature;BMP_pressure;BME280_temperature;BME280_humidity;BME280_pressure;Samples;Min_cycle;Max_cycle;Signal;HPM_P1;HPM_P2
2022/10/01 00:01:54;;;;;;;;;;;14.80;99.90;;;;;;5060345;28;19912;-77
2022/10/01 00:04:19;;;;;;;;;;;14.80;99.90;;;;;;5066888;28;20354;-76
2022/10/01 00:06:45;;;;;;;;;;;14.80;99.90;;;;;;5077422;28;19920;-76
2022/10/01 00:09:11;;;;;;;;;;;14.80;99.90;;;;;;5072782;28;20450;-76
2022/10/01 00:11:36;;;;;;;;;;;14.80;99.90;;;;;;5074266;28;19992;-76
2022/10/01 00:14:02;;;;;;;;;;;14.70;99.90;;;;;;5077905;28;20387;-76
2022/10/01 00:16:28;;;;;;;;;;;14.70;99.90;;;;;;5084321;28;19977;-77
2022/10/01 00:18:54;;;;;;;;;;;14.70;99.90;;;;;;5099140;28;19923;-76
2022/10/01 00:21:21;;;;;;;;;;;14.70;99.90;;;;;;5092659;28;19912;-76
2022/10/01 00:23:51;;;;;;;;;;;14.60;99.90;;;;;;5065231;28;19920;-76
2022/10/01 00:26:20;;;;;;;;;;;14.60;99.90;;;;;;5083005;28;20728;-77
2022/10/01 00:28:46;;;;;;;;;;;14.60;99.90;;;;;;5072950;28;20015;-76
2022/10/01 00:31:13;;;;;;;;;;;14.60;99.90;;;;;;5066341;28;19912;-76
2022/10/01 00:33:39;;;;;;;;;;;14.60;99.90;;;;;;4390535;27;10000715;-77
2022/10/01 00:36:05;;;;;;;;;;;14.50;99.90;;;;;;5067026;28;19923;-75
2022/10/01 00:38:30;;;;;;;;;;;14.50;99.90;;;;;;5077663;28;19916;-77
2022/10/01 00:40:57;;;;;;;;;;;14.50;99.90;;;;;;5082251;28;20333;-77
2022/10/01 00:43:25;;;;;;;;;;;14.40;99.90;;;;;;5079856;28;20086;-77
2022/10/01 00:45:54;;;;;;;;;;;14.40;99.90;;;;;;4721199;27;10000025;-77
2022/10/01 00:48:21;;;;;;;;;;;14.40;99.90;;;;;;5066772;28;19930;-76
2022/10/01 00:50:48;;;;;;;;;;;14.40;99.90;;;;;;5100696;28;19935;-77
2022/10/01 00:53:13;;;;;;;;;;;14.30;99.90;;;;;;5076849;28;19920;-77
2022/10/01 00:55:47;;;;;;;;;;;14.30;99.90;;;;;;5065101;28;19931;-77
2022/10/01 00:58:14;;;;;;;;;;;14.30;99.90;;;;;;5065623;28;20020;-76
2022/10/01 01:00:41;;;;;;;;;;;14.30;99.90;;;;;;5068555;28;20331;-77
2022/10/01 01:03:08;;;;;;;;;;;14.30;99.90;;;;;;5061607;28;20166;-76
2022/10/01 01:05:33;;;;;;;;;;;14.30;99.90;;;;;;5080525;28;19963;-77
2022/10/01 01:08:00;;;;;;;;;;;14.30;99.90;;;;;;5075364;28;19963;-77
2022/10/01 01:10:33;;;;;;;;;;;14.30;99.90;;;;;;5080425;28;20214;-77
2022/10/01 01:13:12;;;;;;;;;;;14.20;99.90;;;;;;5084719;28;20003;-77
2022/10/01 01:15:43;;;;;;;;;;;14.20;99.90;;;;;;5069206;28;20273;-77
2022/10/01 01:18:09;;;;;;;;;;;14.20;99.90;;;;;;5104029;27;20050;-77
2022/10/01 01:20:36;;;;;;;;;;;14.10;99.90;;;;;;5062920;28;20015;-77
2022/10/01 01:23:11;;;;;;;;;;;14.10;99.90;;;;;;5061760;28;19920;-77
2022/10/01 01:25:43;;;;;;;;;;;14.10;99.90;;;;;;5065641;28;19916;-77
2022/10/01 01:28:30;;;;;;;;;;;14.00;99.90;;;;;;5064241;28;19942;-77
2022/10/01 01:30:59;;;;;;;;;;;14.00;99.90;;;;;;5100559;28;20004;-75
2022/10/01 01:33:25;;;;;;;;;;;14.00;99.90;;;;;;5097056;28;20000;-75
2022/10/01 01:35:56;;;;;;;;;;;14.00;99.90;;;;;;5063323;28;20031;-75
2022/10/01 01:38:27;;;;;;;;;;;13.90;99.90;;;;;;5077347;28;20399;-75
2022/10/01 01:40:55;;;;;;;;;;;13.90;99.90;;;;;;5088298;28;19920;-75
2022/10/01 01:43:32;;;;;;;;;;;13.90;99.90;;;;;;5083363;28;19924;-75
2022/10/01 01:45:59;;;;;;;;;;;13.90;99.90;;;;;;5082700;28;19959;-75
2022/10/01 01:48:25;;;;;;;;;;;13.80;99.90;;;;;;5095217;28;20351;-75
2022/10/01 01:50:56;;;;;;;;;;;13.90;99.90;;;;;;5096133;28;19916;-75
2022/10/01 01:53:22;;;;;;;;;;;13.90;99.90;;;;;;5099944;28;19984;-75
2022/10/01 01:55:48;;;;;;;;;;;13.90;99.90;;;;;;5068106;28;20350;-75
2022/10/01 01:58:17;;;;;;;;;;;13.80;99.90;;;;;;5063438;28;19916;-75
2022/10/01 02:00:43;;;;;;;;;;;13.80;99.90;;;;;;5077361;28;19928;-74
2022/10/01 02:03:10;;;;;;;;;;;13.80;99.90;;;;;;5100271;28;20408;-76
2022/10/01 02:05:52;;;;;;;;;;;13.80;99.90;;;;;;5472942;22;20308;-70
2022/10/01 02:08:33;;;;;;;;;;;13.80;99.90;;;;;;5030599;28;20369;-70
2022/10/01 02:11:31;;;;;;;;;;;13.80;99.90;;;;;;5049387;28;19926;-71
2022/10/01 02:14:02;;;;;;;;;;;13.80;99.90;;;;;;5030993;28;19924;-70
2022/10/01 02:16:29;;;;;;;;;;;13.80;99.90;;;;;;5055413;28;20129;-73
2022/10/01 02:18:57;;;;;;;;;;;13.70;99.90;;;;;;5050364;28;20347;-69
2022/10/01 02:21:52;;;;;;;;;;;13.70;99.90;;;;;;5049058;28;19963;-70
2022/10/01 02:24:23;;;;;;;;;;;13.70;99.90;;;;;;5035899;28;19916;-70
2022/10/01 02:26:50;;;;;;;;;;;13.60;99.90;;;;;;5056478;28;19916;-70
2022/10/01 02:29:17;;;;;;;;;;;13.60;99.90;;;;;;5053343;28;19923;-70
2022/10/01 02:31:46;;;;;;;;;;;13.60;99.90;;;;;;5049247;28;19978;-73
2022/10/01 02:34:14;;;;;;;;;;;13.60;99.90;;;;;;5056832;28;19916;-73
2022/10/01 02:36:41;;;;;;;;;;;13.50;99.90;;;;;;5054739;28;19978;-70
2022/10/01 02:39:07;;;;;;;;;;;13.50;99.90;;;;;;5056027;28;19970;-71
2022/10/01 02:41:34;;;;;;;;;;;13.50;99.90;;;;;;5038954;28;20168;-71
2022/10/01 02:44:05;;;;;;;;;;;13.60;99.90;;;;;;5047639;28;20444;-72
2022/10/01 02:46:44;;;;;;;;;;;13.50;99.90;;;;;;5058102;28;20044;-73
2022/10/01 02:49:11;;;;;;;;;;;13.50;99.90;;;;;;5056857;28;19980;-72
2022/10/01 02:51:42;;;;;;;;;;;13.60;99.90;;;;;;5057324;28;19967;-72
2022/10/01 02:54:19;;;;;;;;;;;13.50;99.90;;;;;;5057768;28;20298;-72
2022/10/01 02:59:30;;;;;;;;;;;13.40;99.90;;;;;;5057959;28;19931;-72
2022/10/01 03:01:55;;;;;;;;;;;13.40;99.90;;;;;;5056973;28;19925;-72
2022/10/01 03:04:21;;;;;;;;;;;13.30;99.90;;;;;;5058270;28;20275;-72
2022/10/01 03:06:46;;;;;;;;;;;13.30;99.90;;;;;;5055144;28;19978;-72
2022/10/01 03:09:12;;;;;;;;;;;13.30;99.90;;;;;;5057764;28;20013;-72
2022/10/01 03:11:38;;;;;;;;;;;13.30;99.90;;;;;;5057778;28;19974;-72
2022/10/01 03:14:05;;;;;;;;;;;13.30;99.90;;;;;;5057889;28;19956;-73
2022/10/01 03:16:31;;;;;;;;;;;13.30;99.90;;;;;;5058067;28;19956;-71
2022/10/01 03:18:56;;;;;;;;;;;13.20;99.90;;;;;;5057662;28;19951;-73
2022/10/01 03:21:22;;;;;;;;;;;13.20;99.90;;;;;;5053203;28;19917;-72
2022/10/01 03:23:47;;;;;;;;;;;13.10;99.90;;;;;;5054310;28;20302;-72
2022/10/01 03:26:13;;;;;;;;;;;13.00;99.90;;;;;;5056622;28;19916;-72
2022/10/01 03:28:38;;;;;;;;;;;13.00;99.90;;;;;;5058177;28;19931;-72
2022/10/01 03:31:08;;;;;;;;;;;13.00;99.90;;;;;;5057526;28;20213;-71
2022/10/01 03:33:34;;;;;;;;;;;13.00;99.90;;;;;;5058861;28;19920;-71
2022/10/01 03:35:59;;;;;;;;;;;13.00;99.90;;;;;;5060814;28;19916;-71
2022/10/01 03:38:25;;;;;;;;;;;13.00;99.90;;;;;;5060618;28;20354;-71
2022/10/01 03:40:50;;;;;;;;;;;12.90;99.90;;;;;;5058303;28;20002;-71
2022/10/01 03:43:16;;;;;;;;;;;12.90;99.90;;;;;;5042310;28;19917;-71
2022/10/01 03:45:41;;;;;;;;;;;12.80;99.90;;;;;;5050182;28;20154;-72
2022/10/01 03:48:07;;;;;;;;;;;12.70;99.90;;;;;;5058448;28;20014;-71
2022/10/01 03:50:32;;;;;;;;;;;12.70;99.90;;;;;;5053601;28;19912;-72
2022/10/01 03:52:59;;;;;;;;;;;12.70;99.90;;;;;;5041186;28;19972;-72
2022/10/01 03:55:24;;;;;;;;;;;12.60;99.90;;;;;;5058757;28;19921;-71
2022/10/01 03:57:50;;;;;;;;;;;12.70;99.90;;;;;;5059331;28;19993;-72
2022/10/01 04:00:17;;;;;;;;;;;12.80;99.90;;;;;;5056553;28;19912;-71
2022/10/01 04:02:43;;;;;;;;;;;12.80;99.90;;;;;;5041284;28;19916;-71
2022/10/01 04:05:08;;;;;;;;;;;12.80;99.90;;;;;;5060293;28;19932;-72
2022/10/01 04:07:34;;;;;;;;;;;12.70;99.90;;;;;;5058570;28;19916;-72
2022/10/01 04:09:59;;;;;;;;;;;12.70;99.90;;;;;;5059181;28;19935;-71
2022/10/01 04:12:25;;;;;;;;;;;12.60;99.90;;;;;;5059441;28;19925;-72
2022/10/01 04:14:50;;;;;;;;;;;12.50;99.90;;;;;;5059487;28;20012;-72
2022/10/01 04:17:16;;;;;;;;;;;12.60;99.90;;;;;;5057600;28;19939;-72
2022/10/01 04:19:41;;;;;;;;;;;12.60;99.90;;;;;;5052620;28;20272;-72
2022/10/01 04:22:07;;;;;;;;;;;12.70;99.90;;;;;;5057434;28;19916;-72
2022/10/01 04:24:32;;;;;;;;;;;12.80;99.90;;;;;;5057297;28;20020;-71
2022/10/01 04:26:58;;;;;;;;;;;12.90;99.90;;;;;;5053026;28;20524;-72
2022/10/01 04:29:23;;;;;;;;;;;12.90;99.90;;;;;;5036528;28;20378;-71
2022/10/01 04:31:49;;;;;;;;;;;12.90;99.90;;;;;;5051859;28;19924;-72
2022/10/01 04:34:14;;;;;;;;;;;13.00;99.90;;;;;;5055897;28;20411;-72
2022/10/01 04:36:40;;;;;;;;;;;13.00;99.90;;;;;;5054778;28;20499;-72
2022/10/01 04:39:05;;;;;;;;;;;12.90;99.90;;;;;;5060694;28;20041;-71
2022/10/01 04:41:31;;;;;;;;;;;12.90;99.90;;;;;;5058033;28;19978;-72
2022/10/01 04:43:58;;;;;;;;;;;12.80;99.90;;;;;;5059512;28;20019;-72
2022/10/01 04:46:23;;;;;;;;;;;12.70;99.90;;;;;;5058309;28;19923;-72
2022/10/01 04:48:49;;;;;;;;;;;12.70;99.90;;;;;;5059636;28;19920;-72
2022/10/01 04:51:15;;;;;;;;;;;12.70;99.90;;;;;;5050369;28;19923;-72
2022/10/01 04:53:40;;;;;;;;;;;12.60;99.90;;;;;;5042939;28;19990;-72
2022/10/01 04:56:06;;;;;;;;;;;12.60;99.90;;;;;;5056448;28;20022;-72
2022/10/01 04:58:31;;;;;;;;;;;12.50;99.90;;;;;;5061985;28;19924;-71
2022/10/01 05:00:57;;;;;;;;;;;12.60;99.90;;;;;;5049011;28;19916;-72
2022/10/01 05:03:22;;;;;;;;;;;12.60;99.90;;;;;;5059284;28;20316;-72
2022/10/01 05:05:48;;;;;;;;;;;12.60;99.90;;;;;;5063422;28;20049;-72
2022/10/01 05:08:13;;;;;;;;;;;12.50;99.90;;;;;;5061769;28;19952;-71
2022/10/01 05:10:39;;;;;;;;;;;12.50;99.90;;;;;;5059354;28;19973;-72
2022/10/01 05:13:04;;;;;;;;;;;12.50;99.90;;;;;;5061421;28;20449;-72
2022/10/01 05:15:30;;;;;;;;;;;12.60;99.90;;;;;;5060820;28;20181;-72
2022/10/01 05:17:55;;;;;;;;;;;12.60;99.90;;;;;;5060996;28;19928;-72
2022/10/01 05:20:22;;;;;;;;;;;12.50;99.90;;;;;;5058292;28;19939;-72
2022/10/01 05:22:48;;;;;;;;;;;12.60;99.90;;;;;;5060549;28;20091;-72
2022/10/01 05:25:14;;;;;;;;;;;12.50;99.90;;;;;;5059340;28;20050;-72
2022/10/01 05:27:40;;;;;;;;;;;12.50;99.90;;;;;;5060517;28;20189;-71
2022/10/01 05:30:07;;;;;;;;;;;12.50;99.90;;;;;;5058775;28;20023;-71
2022/10/01 05:32:33;;;;;;;;;;;12.40;99.90;;;;;;5058520;28;19947;-72
2022/10/01 05:34:59;;;;;;;;;;;12.40;99.90;;;;;;5059311;28;19920;-71
2022/10/01 05:37:24;;;;;;;;;;;12.40;99.90;;;;;;5060048;28;20341;-72
2022/10/01 05:39:50;;;;;;;;;;;12.40;99.90;;;;;;5060125;28;19978;-72
2022/10/01 05:42:15;;;;;;;;;;;12.30;99.90;;;;;;5048608;28;20029;-72
2022/10/01 05:44:44;;;;;;;;;;;12.20;99.90;;;;;;5043687;28;20283;-72
2022/10/01 05:47:12;;;;;;;;;;;12.20;99.90;;;;;;5040214;28;20391;-72
2022/10/01 05:49:43;;;;;;;;;;;12.20;99.90;;;;;;5044826;28;19958;-72
2022/10/01 05:52:09;;;;;;;;;;;12.10;99.90;;;;;;5059524;28;19924;-71
2022/10/01 05:54:35;;;;;;;;;;;12.10;99.90;;;;;;5057909;28;20355;-71
2022/10/01 05:57:01;;;;;;;;;;;12.20;99.90;;;;;;5059347;28;19921;-70
2022/10/01 05:59:26;;;;;;;;;;;12.10;99.90;;;;;;5059139;28;19970;-72
2022/10/01 06:01:52;;;;;;;;;;;12.10;99.90;;;;;;5059267;28;19916;-72
2022/10/01 06:04:17;;;;;;;;;;;12.00;99.90;;;;;;5060784;28;19924;-71
2022/10/01 06:06:43;;;;;;;;;;;12.00;99.90;;;;;;5057333;28;20382;-71
2022/10/01 06:09:08;;;;;;;;;;;12.00;99.90;;;;;;5059106;28;20429;-72
2022/10/01 06:11:38;;;;;;;;;;;12.00;99.90;;;;;;5059812;28;19917;-72
2022/10/01 06:14:03;;;;;;;;;;;12.00;99.90;;;;;;5040382;28;19921;-72
2022/10/01 06:16:29;;;;;;;;;;;12.00;99.90;;;;;;5057162;28;19924;-72
2022/10/01 06:18:56;;;;;;;;;;;12.00;99.90;;;;;;5058948;28;19956;-72
2022/10/01 06:21:23;;;;;;;;;;;12.10;99.90;;;;;;5059248;28;19975;-72
2022/10/01 06:23:49;;;;;;;;;;;12.10;99.90;;;;;;5059335;28;19920;-71
2022/10/01 06:26:15;;;;;;;;;;;12.20;99.90;;;;;;5056840;28;19922;-72
2022/10/01 06:28:41;;;;;;;;;;;12.30;99.90;;;;;;5042772;28;19920;-72
2022/10/01 06:31:06;;;;;;;;;;;12.40;99.90;;;;;;5054912;28;19921;-72
2022/10/01 06:33:32;;;;;;;;;;;12.50;99.90;;;;;;5057761;28;19924;-72
2022/10/01 06:35:57;;;;;;;;;;;12.60;99.90;;;;;;5052245;28;20336;-72
2022/10/01 06:38:24;;;;;;;;;;;12.70;99.90;;;;;;5048335;28;19917;-72
2022/10/01 06:40:53;;;;;;;;;;;12.90;99.90;;;;;;5052160;28;19924;-72
2022/10/01 06:43:18;;;;;;;;;;;13.20;99.90;;;;;;5051612;28;20367;-72
2022/10/01 06:45:44;;;;;;;;;;;13.10;99.90;;;;;;5051447;28;19986;-73
2022/10/01 06:48:13;;;;;;;;;;;13.10;99.90;;;;;;5050371;28;19925;-72
2022/10/01 06:50:39;;;;;;;;;;;13.10;99.90;;;;;;5490751;23;20007;-71
2022/10/01 06:53:04;;;;;;;;;;;13.10;99.90;;;;;;5001705;28;19929;-71
2022/10/01 06:55:31;;;;;;;;;;;13.00;99.90;;;;;;5015679;28;20474;-71
2022/10/01 06:58:01;;;;;;;;;;;13.10;99.90;;;;;;5015474;28;19921;-72
2022/10/01 07:00:28;;;;;;;;;;;13.10;99.90;;;;;;5016785;28;19917;-71
2022/10/01 07:02:54;;;;;;;;;;;13.10;99.90;;;;;;5018543;28;19928;-71
2022/10/01 07:05:20;;;;;;;;;;;13.00;99.90;;;;;;5017753;28;20340;-71
2022/10/01 07:07:47;;;;;;;;;;;13.00;99.90;;;;;;5014227;28;19917;-72
2022/10/01 07:10:13;;;;;;;;;;;13.00;99.90;;;;;;5015979;28;19937;-70
2022/10/01 07:12:38;;;;;;;;;;;13.00;99.90;;;;;;5023157;28;20208;-71
2022/10/01 07:15:05;;;;;;;;;;;13.00;99.90;;;;;;5014535;28;20008;-71
2022/10/01 07:17:31;;;;;;;;;;;13.20;99.90;;;;;;5013605;28;19917;-72
2022/10/01 07:19:56;;;;;;;;;;;13.30;99.90;;;;;;5015346;28;19924;-72
2022/10/01 07:22:23;;;;;;;;;;;13.40;99.90;;;;;;5010527;28;19917;-71
2022/10/01 07:24:49;;;;;;;;;;;13.30;99.90;;;;;;5000656;28;20044;-71
2022/10/01 07:27:14;;;;;;;;;;;13.40;99.90;;;;;;5005908;28;19921;-71
2022/10/01 07:29:40;;;;;;;;;;;13.40;99.90;;;;;;5000424;28;19928;-71
2022/10/01 07:32:08;;;;;;;;;;;13.50;99.90;;;;;;4997459;28;19996;-71
2022/10/01 07:34:34;;;;;;;;;;;13.60;99.90;;;;;;4996850;28;19939;-71
2022/10/01 07:37:00;;;;;;;;;;;13.80;99.90;;;;;;5001334;28;19917;-71
2022/10/01 07:39:26;;;;;;;;;;;14.10;99.90;;;;;;5006088;28;20365;-71
2022/10/01 07:41:51;;;;;;;;;;;14.30;99.90;;;;;;5013811;28;20458;-71
2022/10/01 07:44:17;;;;;;;;;;;14.40;99.90;;;;;;5012924;28;19924;-71
2022/10/01 07:46:43;;;;;;;;;;;14.50;99.90;;;;;;5002657;28;19943;-72
2022/10/01 07:49:09;;;;;;;;;;;14.50;99.90;;;;;;5001665;28;19921;-71
2022/10/01 07:51:35;;;;;;;;;;;14.50;99.90;;;;;;5004337;28;19999;-71
2022/10/01 07:54:01;;;;;;;;;;;14.60;99.90;;;;;;5006584;28;20323;-71
2022/10/01 07:56:26;;;;;;;;;;;14.90;99.90;;;;;;5008120;28;20328;-71
2022/10/01 07:58:56;;;;;;;;;;;15.70;99.90;;;;;;5012433;28;20031;-71
2022/10/01 08:01:21;;;;;;;;;;;16.80;99.90;;;;;;5017096;28;20301;-72
2022/10/01 08:03:50;;;;;;;;;;;17.50;99.90;;;;;;5031737;28;19960;-72
2022/10/01 08:06:17;;;;;;;;;;;18.20;99.90;;;;;;5008242;28;20439;-72
2022/10/01 08:08:42;;;;;;;;;;;19.40;99.90;;;;;;5002871;28;19914;-72
2022/10/01 08:11:09;;;;;;;;;;;21.30;99.90;;;;;;5021098;28;19917;-72
2022/10/01 08:13:35;;;;;;;;;;;22.70;96.50;;;;;;5019173;28;19921;-72
2022/10/01 08:16:02;;;;;;;9.27;2.40;;;22.40;93.90;;;;;;5009148;28;20017;-72
2022/10/01 08:18:28;;;;;;;13.68;2.22;;;22.50;94.20;;;;;;5008348;28;20029;-72
2022/10/01 08:20:53;;;;;;;13.80;1.92;;;22.80;93.30;;;;;;5009519;28;20475;-72
2022/10/01 08:23:20;;;;;;;;;;;22.40;93.20;;;;;;5018116;28;20065;-72
2022/10/01 08:25:46;;;;;;;;;;;21.80;91.80;;;;;;5017204;28;19995;-72
2022/10/01 08:28:13;;;;;;;;;;;21.90;94.30;;;;;;5017609;28;20358;-73
2022/10/01 08:30:39;;;;;;;;;;;24.50;90.40;;;;;;5011613;28;20417;-72
2022/10/01 08:33:05;;;;;;;;;;;24.80;85.90;;;;;;5022243;28;19997;-72
2022/10/01 08:35:31;;;;;;;;;;;24.90;84.40;;;;;;5020342;28;19956;-72
2022/10/01 08:38:03;;;;;;;;;;;24.80;83.20;;;;;;5014412;28;19917;-73
2022/10/01 08:40:29;;;;;;;;;;;24.30;80.40;;;;;;5022009;28;19917;-72
2022/10/01 08:42:54;;;;;;;;;;;23.80;82.20;;;;;;5016635;28;19917;-72
2022/10/01 08:45:28;;;;;;;;;;;23.20;85.30;;;;;;5020483;28;19940;-72
2022/10/01 08:48:17;;;;;;;;;;;23.10;87.80;;;;;;5015828;28;20289;-72
2022/10/01 08:50:45;;;;;;;;;;;22.80;87.30;;;;;;5018539;28;20016;-72
2022/10/01 08:53:31;;;;;;;;;;;22.70;87.60;;;;;;5015811;28;19932;-71
2022/10/01 08:55:58;;;;;;;;;;;22.70;88.00;;;;;;5009654;28;20392;-72
2022/10/01 08:58:27;;;;;;;;;;;22.30;86.90;;;;;;5019550;28;19917;-72
2022/10/01 09:00:53;;;;;;;;;;;22.70;89.80;;;;;;5018670;28;19940;-72
2022/10/01 09:03:18;;;;;;;;;;;22.70;86.20;;;;;;5018399;28;20637;-72
2022/10/01 09:05:53;;;;;;;;;;;22.30;87.10;;;;;;5013424;28;19952;-72
2022/10/01 09:08:19;;;;;;;;;;;21.80;90.20;;;;;;5011103;28;19917;-72
2022/10/01 09:11:03;;;;;;;;;;;21.50;91.10;;;;;;5004440;28;19925;-72
2022/10/01 09:13:28;;;;;;;;;;;20.90;91.00;;;;;;5009962;28;20423;-71
2022/10/01 09:16:17;;;;;;;;;;;20.80;93.40;;;;;;5004238;28;19921;-72
2022/10/01 09:18:47;;;;;;;;;;;20.60;93.80;;;;;;5014428;28;19921;-71
2022/10/01 09:21:16;;;;;;;;;;;20.50;95.40;;;;;;5016666;28;20371;-71
2022/10/01 09:23:54;;;;;;;;;;;20.30;95.50;;;;;;5018286;28;19917;-72
2022/10/01 09:26:20;;;;;;;;;;;20.00;97.80;;;;;;5032211;28;19917;-71
2022/10/01 09:28:46;;;;;;;;;;;19.80;97.80;;;;;;5016610;28;19924;-71
2022/10/01 09:31:12;;;;;;;;;;;19.60;98.90;;;;;;5016023;28;19996;-72
2022/10/01 09:33:42;;;;;;;;;;;19.40;97.30;;;;;;5016094;28;19937;-72
2022/10/01 09:36:34;;;;;;;;;;;19.50;98.90;;;;;;5010156;28;19924;-72
2022/10/01 09:39:32;;;;;;;;;;;21.00;96.40;;;;;;5009905;28;19935;-72
2022/10/01 09:41:58;;;;;;;;;;;22.70;92.80;;;;;;5002587;28;20265;-73
2022/10/01 09:44:26;;;;;;;;;;;23.80;86.60;;;;;;5019370;28;19916;-73
2022/10/01 09:46:54;;;;;;;;;;;24.60;84.50;;;;;;5016245;28;19917;-73
2022/10/01 09:49:29;;;;;;;;;;;25.60;79.40;;;;;;5011396;28;20023;-73
2022/10/01 09:52:00;;;;;;;;;;;26.30;76.10;;;;;;5020338;28;20000;-72
2022/10/01 09:54:30;;;;;;;;;;;26.80;73.80;;;;;;5018870;28;19940;-72
2022/10/01 09:57:19;;;;;;;;;;;27.90;69.00;;;;;;5003484;28;19984;-74
2022/10/01 09:59:51;;;;;;;;;;;26.30;67.00;;;;;;5000716;28;19933;-73
2022/10/01 10:02:23;;;;;;;;;;;26.00;69.60;;;;;;5019783;28;20166;-73
2022/10/01 10:04:58;;;;;;;;;;;25.60;69.70;;;;;;5011685;28;19960;-73
2022/10/01 10:07:24;;;;;;;;;;;25.70;70.90;;;;;;5012560;28;19917;-72
2022/10/01 10:09:50;;;;;;;;;;;25.20;69.20;;;;;;5013641;28;20450;-73
2022/10/01 10:12:24;;;;;;;;;;;24.50;73.70;;;;;;5017556;28;19992;-73
2022/10/01 10:14:50;;;;;;;;;;;26.00;75.80;;;;;;5014815;28;19924;-73
2022/10/01 10:17:15;;;;;;;;;;;27.40;68.70;;;;;;5019571;28;20402;-72
2022/10/01 10:19:47;;;;;;;;;;;28.10;67.40;;;;;;5015342;28;19917;-73
2022/10/01 10:22:23;;;;;;;;;;;28.50;62.40;;;;;;5017767;28;19940;-73
2022/10/01 10:24:49;;;;;;;;;;;27.90;61.10;;;;;;5017884;28;20091;-74
2022/10/01 10:27:24;;;;;;;;;;;27.70;64.00;;;;;;5011845;28;20020;-73
2022/10/01 10:29:59;;;;;;;;;;;26.80;61.70;;;;;;5015787;28;20387;-72
2022/10/01 10:32:26;;;;;;;;;;;26.70;65.90;;;;;;5010704;28;19925;-73
2022/10/01 10:34:53;;;;;;;;;;;26.40;63.90;;;;;;5008579;28;19925;-72
2022/10/01 10:37:25;;;;;;;;;;;25.80;62.60;;;;;;5016929;28;19921;-73
2022/10/01 10:39:52;;;;;;;;;;;25.50;64.50;;;;;;5010375;28;19928;-71
2022/10/01 10:42:18;;;;;;;;;;;24.50;65.90;;;;;;5013059;28;19925;-72
2022/10/01 10:44:46;;;;;;;;;;;23.60;69.70;;;;;;5010286;28;19923;-72
2022/10/01 10:47:13;;;;;;;;;;;22.50;70.50;;;;;;5014139;28;20468;-71
2022/10/01 10:49:45;;;;;;;;;;;22.30;75.00;;;;;;5027818;28;20010;-73
2022/10/01 10:52:18;;;;;;;;;;;24.00;74.70;;;;;;5011420;28;19925;-72
2022/10/01 10:54:46;;;;;;;;;;;25.90;68.80;;;;;;5007784;28;19917;-73
2022/10/01 10:57:38;;;;;;;;;;;27.40;68.30;;;;;;5011216;28;19924;-73
2022/10/01 11:00:05;;;;;;;;;;;28.00;63.50;;;;;;5011241;28;20720;-74
2022/10/01 11:02:32;;;;;;;;;;;27.70;62.30;;;;;;5013937;28;20066;-72
2022/10/01 11:05:00;;;;;;;;;;;26.90;59.40;;;;;;5014060;28;20393;-72
2022/10/01 11:07:26;;;;;;;;;;;26.10;64.70;;;;;;5012501;28;19917;-72
2022/10/01 11:09:54;;;;;;;;;;;25.40;64.90;;;;;;5006581;28;19932;-73
2022/10/01 11:12:23;;;;;;;;;;;24.90;67.50;;;;;;5009589;28;20024;-72
2022/10/01 11:14:55;;;;;;;;;;;24.80;72.20;;;;;;5011945;28;19921;-72
2022/10/01 11:17:41;;;;;;;;;;;25.20;71.20;;;;;;5013520;28;19932;-73
2022/10/01 11:20:16;;;;;;;;;;;25.10;67.60;;;;;;4970759;28;19944;-73
2022/10/01 11:22:57;;;;;;;;;;;24.50;68.60;;;;;;5015329;28;19917;-72
2022/10/01 11:25:37;;;;;;;;;;;24.20;68.10;;;;;;5013178;28;20373;-72
2022/10/01 11:28:08;;;;;;;;;;;22.70;74.20;;;;;;5013112;28;20086;-73
2022/10/01 11:30:44;;;;;;;;;;;23.10;77.90;;;;;;5010437;28;20326;-73
2022/10/01 11:33:15;;;;;;;;;;;23.50;75.00;;;;;;5011981;28;20039;-74
2022/10/01 11:36:01;;;;;;;;;;;24.00;75.80;;;;;;5028273;28;19921;-72
2022/10/01 11:38:27;;;;;;;;;;;24.50;77.00;;;;;;5010563;28;19924;-73
2022/10/01 11:41:12;;;;;;;;;;;25.10;70.20;;;;;;5028667;28;19922;-71
2022/10/01 11:43:41;;;;;;;;;;;25.20;71.30;;;;;;5017410;28;19917;-71
2022/10/01 11:46:14;;;;;;;;;;;25.10;68.80;;;;;;5014459;28;19917;-71
2022/10/01 11:48:43;;;;;;;;;;;24.70;66.50;;;;;;5015824;28;19921;-72
2022/10/01 11:51:12;;;;;;;;;;;23.90;67.00;;;;;;5016298;28;19925;-71
2022/10/01 11:53:44;;;;;;;;;;;23.40;71.70;;;;;;5015074;28;20295;-72
2022/10/01 11:59:03;;;;;;;;;;;23.70;76.80;;;;;;5019757;28;20207;-72
2022/10/01 12:01:32;;;;;;;;;;;24.30;72.90;;;;;;5016118;28;19921;-72
2022/10/01 12:04:05;;;;;;;;;;;23.80;68.60;;;;;;5019820;28;19996;-72
2022/10/01 12:06:33;;;;;;;;;;;22.90;70.90;;;;;;5020230;28;19998;-72
2022/10/01 12:09:17;;;;;;;;;;;22.00;73.80;;;;;;5013022;28;19917;-72
2022/10/01 12:11:48;;;;;;;;;;;21.50;76.70;;;;;;5012991;28;20018;-73
2022/10/01 12:14:17;;;;;;;;;;;21.20;76.80;;;;;;5036014;28;20253;-72
2022/10/01 12:16:46;;;;;;;;;;;20.70;77.70;;;;;;5022544;28;19921;-73
2022/10/01 12:19:20;;;;;;;;;;;20.30;80.20;;;;;;5021191;28;20003;-72
2022/10/01 12:21:50;;;;;;;;;;;20.20;82.50;;;;;;5007684;28;20169;-72
2022/10/01 12:24:20;;;;;;;;;;;20.30;83.70;;;;;;5035430;28;19921;-72
2022/10/01 12:26:49;;;;;;;;;;;20.60;82.40;;;;;;5021855;28;20484;-72
2022/10/01 12:29:17;;;;;;;;;;;20.80;81.90;;;;;;5019120;28;19917;-72
2022/10/01 12:31:46;;;;;;;;;;;21.00;80.70;;;;;;5021970;28;19957;-71
2022/10/01 12:34:21;;;;;;;;;;;21.00;81.40;;;;;;5010612;28;19929;-72
2022/10/01 12:36:55;;;;;;;;;;;21.00;82.70;;;;;;5010266;28;20379;-72
2022/10/01 12:39:33;;;;;;;;;;;21.30;86.20;;;;;;5009968;28;20072;-71
2022/10/01 12:42:13;;;;;;;;;;;21.80;80.00;;;;;;5018657;28;19970;-71
2022/10/01 12:44:53;;;;;;;;;;;22.20;81.30;;;;;;5012607;28;19917;-71
2022/10/01 12:47:37;;;;;;;;;;;22.10;77.20;;;;;;5018306;28;20003;-72
2022/10/01 12:50:29;;;;;;;;;;;22.40;81.90;;;;;;5018697;28;20287;-72
2022/10/01 12:53:01;;;;;;;;;;;22.70;78.70;;;;;;5015102;28;19995;-72
2022/10/01 12:55:47;;;;;;;;;;;22.80;73.20;;;;;;5018530;28;19917;-72
2022/10/01 12:58:23;;;;;;;;;;;22.60;76.50;;;;;;5009199;28;19999;-71
2022/10/01 13:00:58;;;;;;;;;;;22.60;74.80;;;;;;5015701;28;19917;-71
2022/10/01 13:03:33;;;;;;;;;;;21.90;74.10;;;;;;5017455;28;20226;-71
2022/10/01 13:06:08;;;;;;;;;;;21.30;76.50;;;;;;5016610;28;20443;-71
2022/10/01 13:08:40;;;;;;;;;;;20.80;79.00;;;;;;5018484;28;20369;-71
2022/10/01 13:11:24;;;;;;;;;;;20.60;80.40;;;;;;5013724;28;19923;-71
2022/10/01 13:13:50;;;;;;;;;;;20.50;83.30;;;;;;5017126;28;19940;-72
2022/10/01 13:16:28;;;;;;;;;;;20.10;80.40;;;;;;5017189;28;19932;-72
2022/10/01 13:19:09;;;;;;;;;;;19.50;86.50;;;;;;5017330;28;19921;-71
2022/10/01 13:21:37;;;;;;;;;;;19.10;90.00;;;;;;5015519;28;19921;-71
2022/10/01 13:24:09;;;;;;;;;;;18.80;91.30;;;;;;5017324;28;20297;-71
2022/10/01 13:26:54;;;;;;;;;;;18.60;91.50;;;;;;5020098;28;19928;-71
2022/10/01 13:29:35;;;;;;;;;;;18.70;93.00;;;;;;5006549;28;19939;-71
2022/10/01 13:32:02;;;;;;;;;;;19.40;91.30;;;;;;5032297;28;20052;-71
2022/10/01 13:34:34;;;;;;;;;;;20.30;91.10;;;;;;5010743;28;19923;-72
2022/10/01 13:37:16;;;;;;;;;;;21.00;89.80;;;;;;5019025;28;19917;-72
2022/10/01 13:39:43;;;;;;;;;;;21.50;86.40;;;;;;5018474;28;19924;-72
2022/10/01 13:42:14;;;;;;;;;;;21.90;81.40;;;;;;5021205;28;19916;-72
2022/10/01 13:44:40;;;;;;;;;;;22.00;82.40;;;;;;5020282;28;20300;-72
2022/10/01 13:47:07;;;;;;;;;;;22.00;80.40;;;;;;5004032;28;19917;-72
2022/10/01 13:49:35;;;;;;;;;;;21.60;82.70;;;;;;5020720;28;19986;-71
2022/10/01 13:52:04;;;;;;;;;;;21.40;82.10;;;;;;5018371;28;19936;-71
2022/10/01 13:54:45;;;;;;;;;;;21.50;86.70;;;;;;5018775;28;20322;-72
2022/10/01 13:57:41;;;;;;;;;;;21.50;89.40;;;;;;5019760;28;19921;-70
2022/10/01 14:00:15;;;;;;;;;;;21.30;85.50;;;;;;4993164;28;20406;-73
2022/10/01 14:02:56;;;;;;;;;;;21.10;85.50;;;;;;5019244;28;20295;-72
2022/10/01 14:05:28;;;;;;;;;;;21.00;83.90;;;;;;5020287;28;19924;-71
2022/10/01 14:07:56;;;;;;;;;;;20.90;86.00;;;;;;5018340;28;20430;-71
2022/10/01 14:10:35;;;;;;;;;;;21.10;84.90;;;;;;5009667;28;19924;-71
2022/10/01 14:15:58;;;;;;;;;;;21.40;89.10;;;;;;5019752;28;20014;-72
2022/10/01 14:18:27;;;;;;;;;;;21.30;79.90;;;;;;5018505;28;19916;-72
2022/10/01 14:20:52;;;;;;;;;;;21.20;87.00;;;;;;5016937;28;19924;-73
2022/10/01 14:23:38;;;;;;;;;;;21.00;85.30;;;;;;5013889;28;19917;-72
2022/10/01 14:26:10;;;;;;;;;;;20.70;84.10;;;;;;4981560;28;20351;-72
2022/10/01 14:28:47;;;;;;;;;;;20.10;83.20;;;;;;5020398;28;19949;-72
2022/10/01 14:31:22;;;;;;;;;;;19.70;85.20;;;;;;5024733;28;20233;-72
2022/10/01 14:33:56;;;;;;;;;;;19.40;84.40;;;;;;5028371;28;19925;-72
2022/10/01 14:36:42;;;;;;;;;;;19.20;88.60;;;;;;5011904;28;20011;-72
2022/10/01 14:39:10;;;;;;;;;;;19.50;86.10;;;;;;5019751;28;19999;-72